Roxbury, Vermont
Current Conditions -  °F | °C
As of 11:51 PM on Thursday 18 Dec 2014 (Local Time) from KMPV Reporting Station
Overcast Overcast  
Wind Chill: 16°   Ceiling: 1300
Heat Index: 25°   Visibility: 10mi
Dew Point: 22°   Wind: 9mph
Humidity: 88%   Direction: 320°NW
Pressure: 29.9"   Gusts: NA
Location:  44.09°N, 72.73°W
Report Text: KMPV 190451Z AUTO 32008KT 10SM OVC013 M04/M06 A2990 RMK AO2 SLP140 T10391056 400111039
Loading
Personal Weather Stations






























Interactive Weather Map New forecast layout! Learn more

10-Day Weather Forecast

Advertisements
Track Severe Weather on mobile